Westville, Illinois
Current Conditions -  °F | °C
As of 6:15 AM on Sunday 25 Jan 2015 (Local Time) from KDNV Reporting Station
Overcast Overcast  
Wind Chill: 34°   Ceiling: 7000
Heat Index: 34°   Visibility: 10mi
Dew Point: 32°   Wind: 3mph
Humidity: 92%   Direction: 90°E
Pressure: 29.61"   Gusts: NA
Location:  40.04°N, 87.64°W
Report Text: KDNV 251215Z AUTO 09003KT 10SM OVC070 01/00 A2961 RMK AO2 T00111001
Loading
Personal Weather Stations






























Interactive Weather Map New forecast layout! Learn more

10-Day Weather Forecast

Advertisements
Track Severe Weather on mobile